createdAt,value
2023-02-24T00:01:39.695Z,8.17
2023-02-24T00:04:11.337Z,8.08
2023-02-24T00:06:41.216Z,8.24
2023-02-24T00:09:11.186Z,8.27
2023-02-24T00:11:40.515Z,8.19
2023-02-24T00:14:09.447Z,8.16
2023-02-24T00:16:39.900Z,8.20
2023-02-24T00:19:10.477Z,8.11
2023-02-24T00:21:37.369Z,8.17
2023-02-24T00:24:04.774Z,8.11
2023-02-24T00:26:32.221Z,7.90
2023-02-24T00:29:00.392Z,7.97
2023-02-24T00:31:31.133Z,7.90
2023-02-24T00:34:02.512Z,8.11
2023-02-24T00:36:33.720Z,8.13
2023-02-24T00:39:09.311Z,7.79
2023-02-24T00:41:40.449Z,8.06
2023-02-24T00:44:14.182Z,8.04
2023-02-24T00:46:47.199Z,8.05
2023-02-24T00:49:19.708Z,7.96
2023-02-24T00:51:49.365Z,7.99
2023-02-24T00:54:17.248Z,7.99
2023-02-24T00:56:46.360Z,7.95
2023-02-24T00:59:18.831Z,7.90
2023-02-24T01:01:46.190Z,7.94
2023-02-24T01:04:14.117Z,7.94
2023-02-24T01:06:47.488Z,7.93
2023-02-24T01:09:18.252Z,7.95
2023-02-24T01:12:22.382Z,7.88
2023-02-24T01:14:52.130Z,7.78
2023-02-24T01:17:20.496Z,7.85
2023-02-24T01:19:49.578Z,7.87
2023-02-24T01:22:18.786Z,7.69
2023-02-24T01:24:47.232Z,7.73
2023-02-24T01:27:17.721Z,7.62
2023-02-24T01:29:46.460Z,7.61
2023-02-24T01:32:19.774Z,7.51
2023-02-24T01:34:51.028Z,7.43
2023-02-24T01:37:19.576Z,7.40
2023-02-24T01:39:47.747Z,7.50
2023-02-24T01:42:19.284Z,7.48
2023-02-24T01:44:46.957Z,7.51
2023-02-24T01:47:16.230Z,7.38
2023-02-24T01:49:47.789Z,7.33
2023-02-24T01:52:22.248Z,7.32
2023-02-24T01:54:55.272Z,7.34
2023-02-24T01:57:26.037Z,7.41
2023-02-24T02:00:01.999Z,7.41
2023-02-24T02:02:31.763Z,7.19
2023-02-24T02:05:09.431Z,7.25
2023-02-24T02:07:40.410Z,7.21
2023-02-24T02:10:09.390Z,7.19
2023-02-24T02:12:40.591Z,7.11
2023-02-24T02:15:08.925Z,7.01
2023-02-24T02:17:48.002Z,7.15
2023-02-24T02:20:33.821Z,7.05
2023-02-24T02:23:25.388Z,7.02
2023-02-24T02:25:58.573Z,7.03
2023-02-24T02:28:54.770Z,6.98
2023-02-24T02:31:25.989Z,6.98
2023-02-24T02:34:28.902Z,6.87
2023-02-24T02:37:05.865Z,6.83
2023-02-24T02:39:52.712Z,6.81
2023-02-24T02:42:25.726Z,6.86
2023-02-24T02:45:05.614Z,6.85
2023-02-24T02:47:44.286Z,6.81
2023-02-24T02:50:18.939Z,6.85
2023-02-24T02:52:58.030Z,6.72
2023-02-24T02:55:38.117Z,6.81
2023-02-24T02:58:10.382Z,6.70
2023-02-24T03:01:01.734Z,6.78
2023-02-24T03:03:34.782Z,6.67
2023-02-24T03:06:08.952Z,6.71
2023-02-24T03:08:39.996Z,6.68
2023-02-24T03:11:15.195Z,6.61
2023-02-24T03:13:45.747Z,6.39
2023-02-24T03:16:14.808Z,6.67
2023-02-24T03:18:51.025Z,6.72
2023-02-24T03:21:33.069Z,6.74
2023-02-24T03:24:02.383Z,6.75
2023-02-24T03:26:53.424Z,6.70
2023-02-24T03:29:34.544Z,6.58
2023-02-24T03:32:12.760Z,6.74
2023-02-24T03:34:57.935Z,6.74
2023-02-24T03:37:28.133Z,6.69
2023-02-24T03:39:58.951Z,6.77
2023-02-24T03:42:33.841Z,6.76
2023-02-24T03:45:01.934Z,6.72
2023-02-24T03:47:33.380Z,6.75
2023-02-24T03:50:00.300Z,6.77
2023-02-24T03:52:49.206Z,6.77
2023-02-24T03:55:26.368Z,6.77
2023-02-24T03:58:20.627Z,6.75
2023-02-24T04:01:13.201Z,6.84
2023-02-24T04:03:51.031Z,6.80
2023-02-24T04:06:45.919Z,6.81
2023-02-24T04:09:25.229Z,6.86
2023-02-24T04:12:27.042Z,6.81
2023-02-24T04:15:12.957Z,6.84
2023-02-24T04:17:54.823Z,6.78
2023-02-24T04:20:29.437Z,6.92
2023-02-24T04:23:04.906Z,6.80
2023-02-24T04:25:32.495Z,6.80
2023-02-24T04:28:03.133Z,6.86
2023-02-24T04:30:35.667Z,6.80
2023-02-24T04:33:03.843Z,6.85
2023-02-24T04:35:31.001Z,6.74
2023-02-24T04:37:58.223Z,6.98
2023-02-24T04:40:26.182Z,6.92
2023-02-24T04:42:54.104Z,6.71
2023-02-24T04:45:25.168Z,7.08
2023-02-24T04:48:01.313Z,7.04
2023-02-24T04:50:34.099Z,7.06
2023-02-24T04:53:06.893Z,7.06
2023-02-24T04:55:40.281Z,7.03
2023-02-24T04:58:10.870Z,7.06
2023-02-24T05:00:41.342Z,7.06
2023-02-24T05:03:11.845Z,7.08
2023-02-24T05:05:39.378Z,6.99
2023-02-24T05:08:09.137Z,7.05
2023-02-24T05:10:39.802Z,7.08
2023-02-24T05:13:09.130Z,7.14
2023-02-24T05:15:41.178Z,7.13
2023-02-24T05:18:14.144Z,7.24
2023-02-24T05:21:08.721Z,7.25
2023-02-24T05:23:44.438Z,7.13
2023-02-24T05:26:16.379Z,7.20
2023-02-24T05:28:47.058Z,7.21
2023-02-24T05:31:17.044Z,7.20
2023-02-24T05:33:48.142Z,7.09
2023-02-24T05:36:17.734Z,7.04
2023-02-24T05:38:45.640Z,7.06
2023-02-24T05:41:20.061Z,7.14
2023-02-24T05:43:53.207Z,7.17
2023-02-24T05:46:28.453Z,7.19
2023-02-24T05:48:59.773Z,7.08
2023-02-24T05:51:35.644Z,7.13
2023-02-24T05:54:04.805Z,7.09
2023-02-24T05:56:37.868Z,6.56
2023-02-24T05:59:08.847Z,7.22
2023-02-24T06:01:38.169Z,7.18
2023-02-24T06:04:06.929Z,7.11
2023-02-24T06:06:42.944Z,7.18
2023-02-24T06:09:13.375Z,7.08
2023-02-24T06:11:42.382Z,7.19
2023-02-24T06:14:11.550Z,7.21
2023-02-24T06:16:41.093Z,7.19
2023-02-24T06:19:10.164Z,7.04
2023-02-24T06:21:41.406Z,7.20
2023-02-24T06:24:18.581Z,7.32
2023-02-24T06:26:46.541Z,7.24
2023-02-24T06:29:15.020Z,7.29
2023-02-24T06:31:43.846Z,7.25
2023-02-24T06:34:13.137Z,7.35
2023-02-24T06:36:40.454Z,7.27
2023-02-24T06:39:08.227Z,7.19
2023-02-24T06:41:38.000Z,7.34
2023-02-24T06:44:05.295Z,7.49
2023-02-24T06:46:32.285Z,7.64
2023-02-24T06:48:59.376Z,7.74
2023-02-24T06:51:30.446Z,7.49
2023-02-24T06:53:59.534Z,7.81
2023-02-24T06:56:27.846Z,7.88
2023-02-24T06:58:56.898Z,7.93
2023-02-24T07:01:28.915Z,8.00
2023-02-24T07:04:04.206Z,7.83
2023-02-24T07:06:34.811Z,7.74
2023-02-24T07:09:05.447Z,7.87
2023-02-24T07:11:34.271Z,7.99
2023-02-24T07:14:02.518Z,8.00
2023-02-24T07:16:29.665Z,8.03
2023-02-24T07:18:58.947Z,8.07
2023-02-24T07:21:30.265Z,7.98
2023-02-24T07:23:59.343Z,8.09
2023-02-24T07:26:27.892Z,8.21
2023-02-24T07:28:55.395Z,8.30
2023-02-24T07:31:24.877Z,8.40
2023-02-24T07:33:57.424Z,8.39
2023-02-24T07:36:30.140Z,8.40
2023-02-24T07:38:59.078Z,8.31
2023-02-24T07:41:26.537Z,8.26
2023-02-24T07:43:55.045Z,8.42
2023-02-24T07:46:28.110Z,8.42
2023-02-24T07:48:56.896Z,8.38
2023-02-24T07:51:26.933Z,7.38
2023-02-24T07:53:59.118Z,8.00
2023-02-24T07:56:28.459Z,8.01
2023-02-24T07:59:00.141Z,7.90
2023-02-24T08:01:39.020Z,7.95
2023-02-24T08:04:12.629Z,8.03
2023-02-24T08:06:46.082Z,8.21
2023-02-24T08:09:17.417Z,8.29
2023-02-24T08:11:54.362Z,8.35
2023-02-24T08:14:35.670Z,8.47
2023-02-24T08:17:05.516Z,8.68
2023-02-24T08:19:39.757Z,8.81
2023-02-24T08:22:20.517Z,8.79
2023-02-24T08:24:52.766Z,8.95
2023-02-24T08:27:22.462Z,8.83
2023-02-24T08:30:00.051Z,8.98
2023-02-24T08:32:37.796Z,9.19
2023-02-24T08:35:16.282Z,9.13
2023-02-24T08:37:53.042Z,9.23
2023-02-24T08:40:32.023Z,9.44
2023-02-24T08:43:16.377Z,9.60
2023-02-24T08:45:52.003Z,9.17
2023-02-24T08:48:37.848Z,9.63
2023-02-24T08:51:08.054Z,9.77
2023-02-24T08:53:40.357Z,9.90
2023-02-24T08:56:11.606Z,10.08
2023-02-24T08:58:41.233Z,10.24
2023-02-24T09:01:24.460Z,10.59
2023-02-24T09:03:57.953Z,9.96
2023-02-24T09:06:38.682Z,10.51
2023-02-24T09:09:17.810Z,10.70
2023-02-24T09:11:49.567Z,10.78
2023-02-24T09:14:27.293Z,10.88
2023-02-24T09:17:07.038Z,10.96
2023-02-24T09:19:47.689Z,10.90
2023-02-24T09:22:31.336Z,10.86
2023-02-24T09:25:21.902Z,10.77
2023-02-24T09:27:52.615Z,10.68
2023-02-24T09:30:37.783Z,10.52
2023-02-24T09:33:23.670Z,10.37
2023-02-24T09:35:53.486Z,10.51
2023-02-24T09:38:42.551Z,10.54
2023-02-24T09:41:45.265Z,10.08
2023-02-24T09:44:19.884Z,9.81
2023-02-24T09:46:57.272Z,9.76
2023-02-24T09:49:40.156Z,9.65
2023-02-24T09:52:18.955Z,9.94
2023-02-24T09:55:27.009Z,9.93
2023-02-24T09:58:16.360Z,9.99
2023-02-24T10:00:57.348Z,10.40
2023-02-24T10:03:42.632Z,10.52
2023-02-24T10:06:13.498Z,10.86
2023-02-24T10:08:55.992Z,10.78
2023-02-24T10:11:33.630Z,10.77
2023-02-24T10:14:07.329Z,10.96
2023-02-24T10:16:43.229Z,11.09
2023-02-24T10:19:23.659Z,11.03
2023-02-24T10:22:02.849Z,10.75
2023-02-24T10:24:48.446Z,11.06
2023-02-24T10:27:27.310Z,11.03
2023-02-24T10:30:27.987Z,11.05
2023-02-24T10:33:00.532Z,11.03
2023-02-24T10:35:33.985Z,11.24
2023-02-24T10:38:05.788Z,11.34
2023-02-24T10:40:47.148Z,11.46
2023-02-24T10:43:19.724Z,11.56
2023-02-24T10:45:48.152Z,11.40
2023-02-24T10:48:42.947Z,11.60
2023-02-24T10:51:20.753Z,11.08
2023-02-24T10:54:28.593Z,11.29
2023-02-24T10:57:18.281Z,11.28
2023-02-24T11:00:13.442Z,11.50
2023-02-24T11:03:08.227Z,11.63
2023-02-24T11:05:44.006Z,11.57
2023-02-24T11:08:46.895Z,11.83
2023-02-24T11:11:34.148Z,12.13
2023-02-24T11:14:21.196Z,12.27
2023-02-24T11:17:15.068Z,12.38
2023-02-24T11:19:47.689Z,12.78
2023-02-24T11:22:20.538Z,12.85
2023-02-24T11:24:48.531Z,12.81
2023-02-24T11:27:18.435Z,13.19
2023-02-24T11:30:06.496Z,13.40
2023-02-24T11:32:49.766Z,13.45
2023-02-24T11:35:37.084Z,13.54
2023-02-24T11:38:28.035Z,13.74
2023-02-24T11:41:14.698Z,14.25
2023-02-24T11:43:45.627Z,14.46
2023-02-24T11:46:17.359Z,14.65
2023-02-24T11:48:51.999Z,14.92
2023-02-24T11:51:24.873Z,15.16
2023-02-24T11:54:00.139Z,15.06
2023-02-24T11:56:32.077Z,14.80
2023-02-24T11:59:14.867Z,14.30
2023-02-24T12:02:14.674Z,14.69
2023-02-24T12:04:51.079Z,15.18
2023-02-24T12:07:42.508Z,15.34
2023-02-24T12:10:32.304Z,15.20
2023-02-24T12:13:11.877Z,15.39
2023-02-24T12:15:55.558Z,15.31
2023-02-24T12:18:37.353Z,15.09
2023-02-24T12:21:06.823Z,15.14
2023-02-24T12:23:35.390Z,15.08
2023-02-24T12:26:15.778Z,15.11
2023-02-24T12:29:12.226Z,14.94
2023-02-24T12:31:54.370Z,15.05
2023-02-24T12:34:43.542Z,14.89
2023-02-24T12:37:48.984Z,14.72
2023-02-24T12:40:31.168Z,15.08
2023-02-24T12:43:33.301Z,14.94
2023-02-24T12:46:09.450Z,15.00
2023-02-24T12:48:39.356Z,15.02
2023-02-24T12:51:27.315Z,15.00
2023-02-24T12:54:34.938Z,14.98
2023-02-24T12:57:27.323Z,14.80
2023-02-24T12:59:57.678Z,14.16
2023-02-24T13:02:28.056Z,13.95
2023-02-24T13:05:51.782Z,13.85
2023-02-24T13:08:28.560Z,13.66
2023-02-24T13:11:13.843Z,13.48
2023-02-24T13:13:46.480Z,13.10
2023-02-24T13:16:13.502Z,13.13
2023-02-24T13:18:40.642Z,13.12
2023-02-24T13:21:22.605Z,13.18
2023-02-24T13:23:58.020Z,13.04
2023-02-24T13:26:27.779Z,13.17
2023-02-24T13:29:10.075Z,13.37
2023-02-24T13:31:46.711Z,13.41
2023-02-24T13:34:25.932Z,13.39
2023-02-24T13:36:53.135Z,13.06
2023-02-24T13:39:44.410Z,12.89
2023-02-24T13:42:20.592Z,12.87
2023-02-24T13:44:53.196Z,12.44
2023-02-24T13:47:20.037Z,12.44
2023-02-24T13:50:08.859Z,12.62
2023-02-24T13:52:57.645Z,12.85
2023-02-24T13:55:39.821Z,13.01
2023-02-24T13:58:16.048Z,12.86
2023-02-24T14:00:58.229Z,12.78
2023-02-24T14:03:28.249Z,12.46
2023-02-24T14:05:59.215Z,12.12
2023-02-24T14:08:35.473Z,12.20
2023-02-24T14:11:07.660Z,12.31
2023-02-24T14:13:36.716Z,12.46
2023-02-24T14:16:08.888Z,12.32
2023-02-24T14:18:37.421Z,12.07
2023-02-24T14:21:04.813Z,11.99
2023-02-24T14:23:34.040Z,12.09
2023-02-24T14:26:12.411Z,12.16
2023-02-24T14:28:40.402Z,12.24
2023-02-24T14:31:14.417Z,11.92
2023-02-24T14:33:44.777Z,11.99
2023-02-24T14:36:18.817Z,11.97
2023-02-24T14:38:45.778Z,11.49
2023-02-24T14:41:25.950Z,11.89
2023-02-24T14:43:53.846Z,11.97
2023-02-24T14:46:21.195Z,11.95
2023-02-24T14:48:54.899Z,11.91
2023-02-24T14:51:32.968Z,12.09
2023-02-24T14:54:04.079Z,12.15
2023-02-24T14:56:33.703Z,12.20
2023-02-24T14:59:03.247Z,12.39
2023-02-24T15:01:33.133Z,12.44
2023-02-24T15:04:09.910Z,12.31
2023-02-24T15:06:40.905Z,12.17
2023-02-24T15:09:22.149Z,12.25
2023-02-24T15:11:53.294Z,12.27
2023-02-24T15:14:27.986Z,12.27
2023-02-24T15:17:16.207Z,12.29
2023-02-24T15:19:46.955Z,12.24
2023-02-24T15:22:23.113Z,12.36
2023-02-24T15:24:51.678Z,12.35
2023-02-24T15:27:18.598Z,12.30
2023-02-24T15:29:57.932Z,12.21
2023-02-24T15:32:27.615Z,12.04
2023-02-24T15:34:54.592Z,12.18
2023-02-24T15:37:33.481Z,12.03
2023-02-24T15:40:06.969Z,12.00
2023-02-24T15:42:35.547Z,11.96
2023-02-24T15:45:04.195Z,11.85
2023-02-24T15:47:45.683Z,11.54
2023-02-24T15:50:13.329Z,11.60
2023-02-24T15:52:41.092Z,11.66
2023-02-24T15:55:14.111Z,11.60
2023-02-24T15:57:41.083Z,11.56
2023-02-24T16:00:14.954Z,11.43
2023-02-24T16:02:42.299Z,11.35
2023-02-24T16:05:13.998Z,11.34
2023-02-24T16:07:44.308Z,11.30
2023-02-24T16:10:21.486Z,11.13
2023-02-24T16:13:00.820Z,11.12
2023-02-24T16:15:38.030Z,11.02
2023-02-24T16:18:14.184Z,10.97
2023-02-24T16:20:41.781Z,10.91
2023-02-24T16:23:10.468Z,10.92
2023-02-24T16:25:44.980Z,10.75
2023-02-24T16:28:21.965Z,10.69
2023-02-24T16:30:50.574Z,9.76
2023-02-24T16:33:19.494Z,10.68
2023-02-24T16:35:46.611Z,10.69
2023-02-24T16:38:15.328Z,10.69
2023-02-24T16:40:45.281Z,10.75
2023-02-24T16:43:13.452Z,10.46
2023-02-24T16:45:42.163Z,10.49
2023-02-24T16:48:21.826Z,10.44
2023-02-24T16:50:49.299Z,10.39
2023-02-24T16:53:19.051Z,10.27
2023-02-24T16:55:47.830Z,10.39
2023-02-24T16:58:15.621Z,10.37
2023-02-24T17:00:45.834Z,10.25
2023-02-24T17:03:28.591Z,10.25
2023-02-24T17:05:55.961Z,10.17
2023-02-24T17:08:23.784Z,10.15
2023-02-24T17:10:51.577Z,10.22
2023-02-24T17:13:20.997Z,10.26
2023-02-24T17:15:49.936Z,10.28
2023-02-24T17:18:16.846Z,10.24
2023-02-24T17:20:43.973Z,10.18
2023-02-24T17:23:11.726Z,10.20
2023-02-24T17:25:38.898Z,10.10
2023-02-24T17:28:07.408Z,10.13
2023-02-24T17:30:35.467Z,10.02
2023-02-24T17:33:03.251Z,9.96
2023-02-24T17:35:30.552Z,9.86
2023-02-24T17:37:57.638Z,9.62
2023-02-24T17:40:24.927Z,9.80
2023-02-24T17:42:51.912Z,9.87
2023-02-24T17:45:20.004Z,9.81
2023-02-24T17:47:47.298Z,9.79
2023-02-24T17:50:14.352Z,9.85
2023-02-24T17:52:41.523Z,9.64
2023-02-24T17:55:09.429Z,9.68
2023-02-24T17:57:36.881Z,9.61
2023-02-24T18:00:05.294Z,9.77
2023-02-24T18:02:40.015Z,9.52
2023-02-24T18:05:08.151Z,9.70
2023-02-24T18:07:35.130Z,9.67
2023-02-24T18:10:02.794Z,9.59
2023-02-24T18:12:31.436Z,9.51
2023-02-24T18:15:07.728Z,9.51
2023-02-24T18:17:35.826Z,9.35
2023-02-24T18:20:04.130Z,9.27
2023-02-24T18:22:31.383Z,9.37
2023-02-24T18:24:59.284Z,9.32
2023-02-24T18:27:26.328Z,9.28
2023-02-24T18:29:54.152Z,9.21
2023-02-24T18:32:21.899Z,9.22
2023-02-24T18:34:49.284Z,9.19
2023-02-24T18:37:16.177Z,9.29
2023-02-24T18:39:43.210Z,9.19
2023-02-24T18:42:10.145Z,9.18
2023-02-24T18:44:37.116Z,9.18
2023-02-24T18:47:09.466Z,9.12
2023-02-24T18:49:37.377Z,9.14
2023-02-24T18:52:05.475Z,9.14
2023-02-24T18:54:34.092Z,9.10
2023-02-24T18:57:01.932Z,9.03
2023-02-24T18:59:29.055Z,8.98
2023-02-24T19:01:57.248Z,8.91
2023-02-24T19:04:25.283Z,8.93
2023-02-24T19:06:52.229Z,8.68
2023-02-24T19:09:21.863Z,8.85
2023-02-24T19:11:50.354Z,8.73
2023-02-24T19:14:17.777Z,8.80
2023-02-24T19:16:45.319Z,8.75
2023-02-24T19:19:14.652Z,8.79
2023-02-24T19:21:42.310Z,8.74
2023-02-24T19:24:11.165Z,8.69
2023-02-24T19:26:38.826Z,8.70
2023-02-24T19:29:06.354Z,8.60
2023-02-24T19:31:33.806Z,8.53
2023-02-24T19:34:03.987Z,8.50
2023-02-24T19:36:32.531Z,8.45
2023-02-24T19:38:59.471Z,8.42
2023-02-24T19:41:26.852Z,8.38
2023-02-24T19:43:53.969Z,8.33
2023-02-24T19:46:21.226Z,8.28
2023-02-24T19:48:48.997Z,8.30
2023-02-24T19:51:21.343Z,8.17
2023-02-24T19:53:52.436Z,8.19
2023-02-24T19:56:28.334Z,8.13
2023-02-24T19:58:57.402Z,8.03
2023-02-24T20:01:26.111Z,7.95
2023-02-24T20:03:58.943Z,7.83
2023-02-24T20:06:31.078Z,7.75
2023-02-24T20:08:58.587Z,7.94
2023-02-24T20:11:26.281Z,7.81
2023-02-24T20:13:53.544Z,7.78
2023-02-24T20:16:23.735Z,7.63
2023-02-24T20:18:51.747Z,7.74
2023-02-24T20:21:18.876Z,7.67
2023-02-24T20:23:45.753Z,7.57
2023-02-24T20:26:16.636Z,7.59
2023-02-24T20:28:45.286Z,7.62
2023-02-24T20:31:15.394Z,7.61
2023-02-24T20:33:43.880Z,7.60
2023-02-24T20:36:13.709Z,7.59
2023-02-24T20:38:41.034Z,7.40
2023-02-24T20:41:08.333Z,7.48
2023-02-24T20:43:35.702Z,7.44
2023-02-24T20:46:24.903Z,7.44
2023-02-24T20:48:55.796Z,7.41
2023-02-24T20:51:23.523Z,7.22
2023-02-24T20:53:57.207Z,7.23
2023-02-24T20:56:29.293Z,7.23
2023-02-24T20:59:01.991Z,7.27
2023-02-24T21:01:31.047Z,7.21
2023-02-24T21:03:58.549Z,7.22
2023-02-24T21:06:26.749Z,7.12
2023-02-24T21:08:53.924Z,7.13
2023-02-24T21:11:23.091Z,7.10
2023-02-24T21:13:51.542Z,7.04
2023-02-24T21:16:21.016Z,7.06
2023-02-24T21:18:49.963Z,7.12
2023-02-24T21:21:17.544Z,7.03
2023-02-24T21:23:44.749Z,7.05
2023-02-24T21:26:13.313Z,7.08
2023-02-24T21:28:40.998Z,6.97
2023-02-24T21:31:13.941Z,7.02
2023-02-24T21:33:41.267Z,6.95
2023-02-24T21:36:13.548Z,6.96
2023-02-24T21:38:41.431Z,6.91
2023-02-24T21:41:13.341Z,6.96
2023-02-24T21:43:41.508Z,6.94
2023-02-24T21:46:11.668Z,6.87
2023-02-24T21:48:40.724Z,6.87
2023-02-24T21:51:09.988Z,6.87
2023-02-24T21:53:39.514Z,6.88
2023-02-24T21:56:18.472Z,6.79
2023-02-24T21:59:00.116Z,6.89
2023-02-24T22:01:32.864Z,6.88
2023-02-24T22:04:02.237Z,6.91
2023-02-24T22:06:32.028Z,6.89
2023-02-24T22:09:01.198Z,6.80
2023-02-24T22:11:31.203Z,6.95
2023-02-24T22:13:58.555Z,6.91
2023-02-24T22:16:26.200Z,6.90
2023-02-24T22:18:55.381Z,6.90
2023-02-24T22:21:24.840Z,6.91
2023-02-24T22:23:54.965Z,6.88
2023-02-24T22:26:23.853Z,6.80
2023-02-24T22:28:51.561Z,6.82
2023-02-24T22:31:21.222Z,6.72
2023-02-24T22:33:49.379Z,6.67
2023-02-24T22:36:20.341Z,6.63
2023-02-24T22:38:47.999Z,6.62
2023-02-24T22:41:20.634Z,6.57
2023-02-24T22:43:48.117Z,6.61
2023-02-24T22:46:30.339Z,6.56
2023-02-24T22:48:57.783Z,6.51
2023-02-24T22:51:25.665Z,6.46
2023-02-24T22:53:53.404Z,6.50
2023-02-24T22:56:23.667Z,6.45
2023-02-24T22:58:51.328Z,6.45
2023-02-24T23:01:24.201Z,6.38
2023-02-24T23:03:52.077Z,6.37
2023-02-24T23:06:22.893Z,6.33
2023-02-24T23:08:51.537Z,6.29
2023-02-24T23:11:41.367Z,6.36
2023-02-24T23:14:13.845Z,6.32
2023-02-24T23:16:44.641Z,6.31
2023-02-24T23:19:16.278Z,6.30
2023-02-24T23:21:50.030Z,6.22
2023-02-24T23:24:18.055Z,6.23
2023-02-24T23:26:48.455Z,6.24
2023-02-24T23:29:17.521Z,6.29
2023-02-24T23:31:45.397Z,6.26
2023-02-24T23:34:12.346Z,6.25
2023-02-24T23:36:43.638Z,6.15
2023-02-24T23:39:13.297Z,6.24
2023-02-24T23:41:44.317Z,6.05
2023-02-24T23:44:12.463Z,6.01
2023-02-24T23:46:39.522Z,6.15
2023-02-24T23:49:06.476Z,6.15
2023-02-24T23:51:50.136Z,6.19
2023-02-24T23:54:18.126Z,6.11
2023-02-24T23:56:45.358Z,6.20
2023-02-24T23:59:12.378Z,6.17
